createdAt,value
2022-10-31T00:02:56.760Z,15.65
2022-10-31T00:05:59.466Z,16.25
2022-10-31T00:09:04.013Z,15.13
2022-10-31T00:12:06.699Z,15.88
2022-10-31T00:15:09.433Z,15.27
2022-10-31T00:18:12.433Z,14.35
2022-10-31T00:21:16.006Z,14.50
2022-10-31T00:24:18.658Z,15.80
2022-10-31T00:27:21.305Z,16.00
2022-10-31T00:30:24.770Z,15.65
2022-10-31T00:33:27.422Z,15.10
2022-10-31T00:36:30.038Z,13.43
2022-10-31T00:39:32.637Z,13.73
2022-10-31T00:42:35.306Z,14.85
2022-10-31T00:45:37.914Z,14.10
2022-10-31T00:48:41.137Z,14.10
2022-10-31T00:51:43.743Z,14.50
2022-10-31T00:54:46.463Z,13.93
2022-10-31T00:57:49.252Z,14.20
2022-10-31T01:00:57.023Z,14.60
2022-10-31T01:04:00.099Z,14.13
2022-10-31T01:07:02.797Z,13.77
2022-10-31T01:10:06.737Z,12.93
2022-10-31T01:13:09.540Z,14.15
2022-10-31T01:16:15.789Z,14.82
2022-10-31T01:19:18.876Z,14.20
2022-10-31T01:22:21.950Z,13.33
2022-10-31T01:25:24.618Z,14.93
2022-10-31T01:28:27.326Z,12.98
2022-10-31T01:31:32.481Z,13.62
2022-10-31T01:34:35.194Z,13.55
2022-10-31T01:37:37.909Z,13.47
2022-10-31T01:40:40.694Z,14.03
2022-10-31T01:43:44.628Z,14.13
2022-10-31T01:46:59.704Z,14.07
2022-10-31T01:50:05.398Z,13.95
2022-10-31T01:53:09.695Z,13.30
2022-10-31T01:56:13.805Z,14.57
2022-10-31T01:59:18.590Z,13.32
2022-10-31T02:02:21.487Z,13.68
2022-10-31T02:05:26.604Z,13.95
2022-10-31T02:08:31.507Z,13.95
2022-10-31T02:11:36.141Z,13.63
2022-10-31T02:14:39.081Z,13.57
2022-10-31T02:17:41.718Z,14.93
2022-10-31T02:20:59.180Z,14.40
2022-10-31T02:24:32.472Z,14.40
2022-10-31T02:27:55.743Z,14.13
2022-10-31T02:31:19.610Z,14.27
2022-10-31T02:34:31.844Z,13.73
2022-10-31T02:37:47.389Z,15.18
2022-10-31T02:41:16.082Z,14.67
2022-10-31T02:44:33.831Z,14.03
2022-10-31T02:47:39.528Z,14.45
2022-10-31T02:50:46.513Z,14.45
2022-10-31T02:53:49.127Z,15.50
2022-10-31T02:57:04.147Z,15.63
2022-10-31T03:00:09.197Z,13.77
2022-10-31T03:03:20.682Z,15.25
2022-10-31T03:06:36.752Z,15.10
2022-10-31T03:09:45.305Z,14.90
2022-10-31T03:12:52.744Z,15.27
2022-10-31T03:16:11.490Z,15.07
2022-10-31T03:19:19.103Z,15.15
2022-10-31T03:22:24.266Z,14.90
2022-10-31T03:25:27.404Z,13.45
2022-10-31T03:28:33.496Z,14.57
2022-10-31T03:31:52.941Z,13.57
2022-10-31T03:34:58.693Z,14.65
2022-10-31T03:38:05.430Z,14.10
2022-10-31T03:41:13.725Z,14.18
2022-10-31T03:44:18.865Z,13.87
2022-10-31T03:47:21.437Z,14.07
2022-10-31T03:50:26.969Z,13.75
2022-10-31T03:53:55.368Z,13.57
2022-10-31T03:57:01.570Z,14.38
2022-10-31T04:00:09.655Z,14.23
2022-10-31T04:03:33.641Z,13.83
2022-10-31T04:06:38.010Z,13.07
2022-10-31T04:09:44.528Z,13.25
2022-10-31T04:12:53.851Z,12.60
2022-10-31T04:15:57.263Z,14.33
2022-10-31T04:18:59.906Z,13.07
2022-10-31T04:22:03.082Z,12.65
2022-10-31T04:25:06.419Z,13.27
2022-10-31T04:28:09.160Z,13.18
2022-10-31T04:31:12.880Z,12.97
2022-10-31T04:34:15.623Z,12.23
2022-10-31T04:37:18.314Z,12.70
2022-10-31T04:40:20.910Z,12.05
2022-10-31T04:43:23.556Z,12.10
2022-10-31T04:46:26.286Z,12.57
2022-10-31T04:49:28.985Z,12.20
2022-10-31T04:52:31.675Z,12.73
2022-10-31T04:55:34.342Z,12.02
2022-10-31T04:58:36.924Z,11.82
2022-10-31T05:01:39.600Z,11.87
2022-10-31T05:04:42.292Z,10.93
2022-10-31T05:07:46.478Z,11.82
2022-10-31T05:10:49.185Z,11.15
2022-10-31T05:13:51.771Z,12.65
2022-10-31T05:16:54.599Z,11.33
2022-10-31T05:19:57.229Z,11.10
2022-10-31T05:23:02.725Z,11.43
2022-10-31T05:26:05.541Z,12.30
2022-10-31T05:29:08.299Z,12.02
2022-10-31T05:32:10.905Z,12.10
2022-10-31T05:35:16.238Z,11.43
2022-10-31T05:38:18.956Z,11.57
2022-10-31T05:41:21.969Z,11.98
2022-10-31T05:44:24.640Z,11.30
2022-10-31T05:47:27.331Z,11.70
2022-10-31T05:50:32.077Z,11.00
2022-10-31T05:53:34.736Z,10.30
2022-10-31T05:56:37.355Z,10.68
2022-10-31T05:59:39.973Z,10.98
2022-10-31T06:02:42.782Z,10.67
2022-10-31T06:05:49.218Z,10.67
2022-10-31T06:08:55.234Z,9.90
2022-10-31T06:11:57.872Z,9.80
2022-10-31T06:15:00.513Z,10.20
2022-10-31T06:18:05.519Z,10.27
2022-10-31T06:21:08.173Z,9.57
2022-10-31T06:24:10.829Z,9.82
2022-10-31T06:27:13.430Z,9.90
2022-10-31T06:30:16.195Z,9.52
2022-10-31T06:33:18.840Z,10.03
2022-10-31T06:36:21.609Z,9.70
2022-10-31T06:39:24.395Z,9.85
2022-10-31T06:42:26.973Z,9.63
2022-10-31T06:45:30.017Z,10.02
2022-10-31T06:48:33.623Z,10.57
2022-10-31T06:51:36.473Z,10.93
2022-10-31T06:54:39.103Z,10.50
2022-10-31T06:57:41.856Z,10.02
2022-10-31T07:00:44.457Z,9.35
2022-10-31T07:03:47.064Z,8.80
2022-10-31T07:06:52.746Z,9.47
2022-10-31T07:09:55.406Z,19.65
2022-10-31T07:12:59.816Z,12.35
2022-10-31T07:16:05.092Z,8.77
2022-10-31T07:19:07.725Z,9.30
2022-10-31T07:22:10.650Z,7.70
2022-10-31T07:25:13.218Z,8.93
2022-10-31T07:28:16.050Z,7.70
2022-10-31T07:31:18.632Z,7.93
2022-10-31T07:34:21.230Z,7.83
2022-10-31T07:37:23.859Z,8.90
2022-10-31T07:40:26.851Z,8.13
2022-10-31T07:43:29.485Z,8.30
2022-10-31T07:46:32.106Z,6.95
2022-10-31T07:49:34.719Z,7.93
2022-10-31T07:52:37.722Z,9.63
2022-10-31T07:55:40.914Z,8.63
2022-10-31T07:58:43.464Z,9.50
2022-10-31T08:01:46.453Z,8.70
2022-10-31T08:04:49.877Z,8.83
2022-10-31T08:07:52.491Z,9.87
2022-10-31T08:10:56.074Z,8.25
2022-10-31T08:13:58.621Z,8.85
2022-10-31T08:17:01.252Z,8.15
2022-10-31T08:20:05.219Z,8.70
2022-10-31T08:23:08.081Z,8.83
2022-10-31T08:26:10.854Z,11.07
2022-10-31T08:29:14.080Z,10.10
2022-10-31T08:32:16.739Z,11.27
2022-10-31T08:35:19.316Z,13.07
2022-10-31T08:38:21.920Z,12.90
2022-10-31T08:41:24.903Z,8.27
2022-10-31T08:44:27.511Z,8.82
2022-10-31T08:47:30.401Z,9.20
2022-10-31T08:50:34.616Z,9.70
2022-10-31T08:53:38.014Z,9.10
2022-10-31T08:56:40.645Z,8.80
2022-10-31T08:59:43.212Z,7.93
2022-10-31T09:02:46.025Z,8.35
2022-10-31T09:05:49.101Z,8.20
2022-10-31T09:08:52.050Z,8.23
2022-10-31T09:11:54.865Z,8.52
2022-10-31T09:14:57.422Z,7.85
2022-10-31T09:18:00.440Z,7.87
2022-10-31T09:21:03.396Z,7.97
2022-10-31T09:24:06.587Z,8.37
2022-10-31T09:27:10.139Z,8.95
2022-10-31T09:30:13.308Z,8.00
2022-10-31T09:33:16.327Z,7.12
2022-10-31T09:36:19.535Z,7.50
2022-10-31T09:39:22.218Z,7.67
2022-10-31T09:42:49.472Z,7.07
2022-10-31T09:46:21.297Z,7.22
2022-10-31T09:49:58.403Z,6.87
2022-10-31T09:53:05.122Z,7.90
2022-10-31T09:56:12.324Z,8.23
2022-10-31T09:59:35.770Z,7.72
2022-10-31T10:02:46.617Z,8.30
2022-10-31T10:06:11.859Z,8.65
2022-10-31T10:09:14.963Z,8.13
2022-10-31T10:12:25.399Z,7.10
2022-10-31T10:15:49.420Z,7.40
2022-10-31T10:19:19.061Z,8.02
2022-10-31T10:22:39.712Z,7.78
2022-10-31T10:25:42.430Z,7.73
2022-10-31T10:28:50.105Z,7.80
2022-10-31T10:31:53.632Z,8.20
2022-10-31T10:35:25.153Z,8.10
2022-10-31T10:38:45.456Z,8.05
2022-10-31T10:42:10.783Z,8.50
2022-10-31T10:45:39.575Z,8.90
2022-10-31T10:48:49.418Z,8.27
2022-10-31T10:55:34.568Z,7.75
2022-10-31T10:58:38.576Z,9.60
2022-10-31T11:01:42.698Z,9.37
2022-10-31T11:04:46.825Z,8.40
2022-10-31T11:07:49.633Z,7.70
2022-10-31T11:11:18.628Z,8.38
2022-10-31T11:14:21.780Z,8.77
2022-10-31T11:17:37.283Z,9.87
2022-10-31T11:20:40.220Z,10.20
2022-10-31T11:23:43.244Z,10.00
2022-10-31T11:26:49.913Z,9.88
2022-10-31T11:29:55.703Z,10.80
2022-10-31T11:33:02.767Z,10.37
2022-10-31T11:36:18.259Z,10.90
2022-10-31T11:39:25.272Z,10.40
2022-10-31T11:42:30.200Z,10.23
2022-10-31T11:45:35.034Z,12.20
2022-10-31T11:48:40.501Z,10.70
2022-10-31T11:51:43.410Z,10.55
2022-10-31T11:55:01.326Z,11.00
2022-10-31T11:58:05.074Z,10.75
2022-10-31T12:01:26.962Z,11.20
2022-10-31T12:04:46.011Z,11.23
2022-10-31T12:07:50.097Z,11.15
2022-10-31T12:10:53.921Z,10.90
2022-10-31T12:14:07.102Z,11.15
2022-10-31T12:17:19.294Z,11.17
2022-10-31T12:20:57.405Z,10.83
2022-10-31T12:24:33.085Z,12.55
2022-10-31T12:28:06.282Z,11.15
2022-10-31T12:31:39.783Z,13.23
2022-10-31T12:34:58.916Z,12.20
2022-10-31T12:38:01.900Z,12.10
2022-10-31T12:41:11.351Z,12.55
2022-10-31T12:44:36.249Z,11.38
2022-10-31T12:47:57.853Z,11.32
2022-10-31T12:51:11.716Z,11.38
2022-10-31T12:54:28.719Z,12.07
2022-10-31T12:57:41.616Z,12.00
2022-10-31T13:00:46.134Z,13.57
2022-10-31T13:04:04.232Z,18.40
2022-10-31T13:07:12.972Z,19.07
2022-10-31T13:10:45.046Z,12.83
2022-10-31T13:14:00.454Z,14.07
2022-10-31T13:17:03.580Z,12.40
2022-10-31T13:20:25.127Z,12.37
2022-10-31T13:23:51.319Z,12.02
2022-10-31T13:26:57.670Z,11.93
2022-10-31T13:30:22.160Z,12.27
2022-10-31T13:33:40.315Z,12.05
2022-10-31T13:37:00.348Z,12.73
2022-10-31T13:40:18.927Z,13.30
2022-10-31T13:43:33.855Z,12.40
2022-10-31T13:49:49.200Z,11.43
2022-10-31T13:52:52.056Z,12.60
2022-10-31T13:56:16.367Z,12.10
2022-10-31T13:59:22.641Z,12.13
2022-10-31T14:02:29.206Z,12.95
2022-10-31T14:05:34.158Z,15.25
2022-10-31T14:08:39.779Z,12.98
2022-10-31T14:11:47.418Z,12.63
2022-10-31T14:14:51.892Z,35.33
2022-10-31T14:17:57.600Z,35.05
2022-10-31T14:21:00.531Z,16.55
2022-10-31T14:24:15.138Z,12.68
2022-10-31T14:27:29.626Z,43.07
2022-10-31T14:30:32.659Z,28.90
2022-10-31T14:33:35.443Z,18.58
2022-10-31T14:37:14.933Z,16.83
2022-10-31T14:40:43.878Z,15.60
2022-10-31T14:43:47.859Z,14.98
2022-10-31T14:47:08.070Z,15.93
2022-10-31T14:50:22.228Z,15.75
2022-10-31T14:53:29.163Z,17.45
2022-10-31T14:56:34.379Z,17.33
2022-10-31T14:59:39.481Z,17.83
2022-10-31T15:03:04.150Z,15.43
2022-10-31T15:06:13.178Z,15.48
2022-10-31T15:09:44.663Z,17.65
2022-10-31T15:12:47.642Z,16.33
2022-10-31T15:15:56.805Z,15.65
2022-10-31T15:19:04.436Z,14.70
2022-10-31T15:22:11.835Z,15.18
2022-10-31T15:25:21.142Z,15.80
2022-10-31T15:28:26.058Z,15.68
2022-10-31T15:31:29.317Z,18.02
2022-10-31T15:34:31.923Z,15.50
2022-10-31T15:37:34.616Z,15.68
2022-10-31T15:40:37.902Z,19.17
2022-10-31T15:43:40.725Z,16.23
2022-10-31T15:47:16.884Z,16.97
2022-10-31T15:50:23.911Z,16.07
2022-10-31T15:53:38.792Z,15.57
2022-10-31T15:56:45.586Z,16.58
2022-10-31T15:59:50.025Z,17.00
2022-10-31T16:03:23.745Z,17.12
2022-10-31T16:06:26.759Z,16.17
2022-10-31T16:09:30.202Z,16.50
2022-10-31T16:12:38.563Z,17.48
2022-10-31T16:15:55.824Z,18.67
2022-10-31T16:19:07.468Z,19.73
2022-10-31T16:22:13.618Z,16.93
2022-10-31T16:25:20.305Z,15.40
2022-10-31T16:28:30.191Z,15.15
2022-10-31T16:31:40.171Z,14.63
2022-10-31T16:34:42.995Z,15.77
2022-10-31T16:37:45.911Z,14.87
2022-10-31T16:40:49.189Z,13.68
2022-10-31T16:43:53.504Z,14.23
2022-10-31T16:47:16.467Z,13.55
2022-10-31T16:50:24.983Z,15.80
2022-10-31T16:53:28.170Z,14.83
2022-10-31T16:56:35.071Z,15.80
2022-10-31T16:59:38.242Z,16.37
2022-10-31T17:02:41.001Z,15.88
2022-10-31T17:05:44.359Z,16.47
2022-10-31T17:08:47.269Z,16.70
2022-10-31T17:11:52.917Z,15.93
2022-10-31T17:14:55.819Z,15.65
2022-10-31T17:17:58.788Z,15.45
2022-10-31T17:21:03.855Z,18.00
2022-10-31T17:24:06.961Z,16.77
2022-10-31T17:27:15.613Z,16.55
2022-10-31T17:30:20.501Z,15.88
2022-10-31T17:33:23.271Z,16.12
2022-10-31T17:36:26.964Z,14.40
2022-10-31T17:39:30.244Z,15.77
2022-10-31T17:42:33.652Z,16.05
2022-10-31T17:45:40.070Z,17.37
2022-10-31T17:48:43.052Z,14.75
2022-10-31T17:51:51.114Z,14.60
2022-10-31T17:54:53.971Z,14.87
2022-10-31T17:57:56.851Z,15.32
2022-10-31T18:01:00.439Z,15.48
2022-10-31T18:04:03.494Z,16.60
2022-10-31T18:07:06.514Z,17.57
2022-10-31T18:10:10.099Z,17.17
2022-10-31T18:13:13.137Z,18.33
2022-10-31T18:16:19.012Z,16.60
2022-10-31T18:19:21.730Z,16.60
2022-10-31T18:22:24.722Z,16.23
2022-10-31T18:25:27.562Z,14.97
2022-10-31T18:28:30.677Z,15.32
2022-10-31T18:31:33.364Z,13.68
2022-10-31T18:34:36.201Z,14.82
2022-10-31T18:37:39.002Z,17.37
2022-10-31T18:40:41.782Z,18.27
2022-10-31T18:43:44.627Z,18.20
2022-10-31T18:46:47.381Z,17.42
2022-10-31T18:49:50.186Z,16.77
2022-10-31T18:52:52.907Z,17.80
2022-10-31T18:55:55.783Z,16.13
2022-10-31T18:59:04.902Z,17.45
2022-10-31T19:02:08.361Z,16.80
2022-10-31T19:05:11.465Z,16.42
2022-10-31T19:08:14.592Z,15.27
2022-10-31T19:11:20.768Z,15.53
2022-10-31T19:14:24.201Z,16.02
2022-10-31T19:17:27.351Z,16.12
2022-10-31T19:20:30.593Z,17.50
2022-10-31T19:23:33.899Z,15.77
2022-10-31T19:26:37.107Z,14.43
2022-10-31T19:29:42.306Z,13.82
2022-10-31T19:32:45.485Z,13.18
2022-10-31T19:35:48.645Z,12.55
2022-10-31T19:38:53.161Z,13.30
2022-10-31T19:41:56.037Z,13.03
2022-10-31T19:45:01.467Z,14.63
2022-10-31T19:48:05.154Z,14.48
2022-10-31T19:51:11.517Z,14.77
2022-10-31T19:54:14.498Z,15.97
2022-10-31T19:57:18.627Z,15.87
2022-10-31T20:00:26.470Z,15.43
2022-10-31T20:03:29.664Z,15.07
2022-10-31T20:06:35.144Z,15.85
2022-10-31T20:09:37.850Z,15.43
2022-10-31T20:12:40.559Z,15.20
2022-10-31T20:15:43.249Z,16.48
2022-10-31T20:18:47.249Z,17.12
2022-10-31T20:21:50.227Z,18.15
2022-10-31T20:24:53.947Z,18.77
2022-10-31T20:27:56.766Z,19.33
2022-10-31T20:31:01.824Z,17.70
2022-10-31T20:34:04.811Z,19.12
2022-10-31T20:37:07.950Z,20.20
2022-10-31T20:40:11.683Z,19.67
2022-10-31T20:43:16.721Z,19.30
2022-10-31T20:46:24.266Z,16.80
2022-10-31T20:49:27.424Z,17.45
2022-10-31T20:52:30.198Z,17.37
2022-10-31T20:55:33.153Z,16.73
2022-10-31T20:58:37.571Z,16.80
2022-10-31T21:01:40.430Z,17.83
2022-10-31T21:04:43.621Z,17.12
2022-10-31T21:07:47.084Z,16.98
2022-10-31T21:10:50.438Z,15.00
2022-10-31T21:13:53.783Z,15.57
2022-10-31T21:16:56.767Z,15.55
2022-10-31T21:19:59.637Z,16.48
2022-10-31T21:23:02.921Z,18.12
2022-10-31T21:26:08.921Z,18.40
2022-10-31T21:29:12.886Z,17.10
2022-10-31T21:32:15.774Z,16.75
2022-10-31T21:35:18.484Z,17.92
2022-10-31T21:38:21.175Z,18.33
2022-10-31T21:41:25.303Z,17.83
2022-10-31T21:44:27.979Z,17.57
2022-10-31T21:47:30.881Z,16.95
2022-10-31T21:50:35.224Z,17.75
2022-10-31T21:53:56.826Z,17.50
2022-10-31T21:57:01.225Z,16.97
2022-10-31T22:00:07.254Z,17.40
2022-10-31T22:03:10.592Z,18.35
2022-10-31T22:06:15.053Z,16.30
2022-10-31T22:09:19.959Z,18.30
2022-10-31T22:12:22.682Z,16.27
2022-10-31T22:15:25.330Z,16.57
2022-10-31T22:18:28.555Z,16.95
2022-10-31T22:21:36.957Z,16.58
2022-10-31T22:24:40.139Z,14.70
2022-10-31T22:27:43.370Z,15.13
2022-10-31T22:30:45.983Z,15.00
2022-10-31T22:33:49.160Z,13.62
2022-10-31T22:36:51.963Z,13.65
2022-10-31T22:39:54.677Z,13.43
2022-10-31T22:42:57.487Z,15.60
2022-10-31T22:46:03.711Z,13.47
2022-10-31T22:49:10.057Z,14.80
2022-10-31T22:52:12.933Z,14.20
2022-10-31T22:55:17.512Z,14.35
2022-10-31T22:58:20.347Z,15.57
2022-10-31T23:01:25.900Z,15.50
2022-10-31T23:04:29.093Z,13.88
2022-10-31T23:07:33.004Z,14.25
2022-10-31T23:10:41.350Z,13.40
2022-10-31T23:14:04.779Z,13.37
2022-10-31T23:17:07.566Z,13.83
2022-10-31T23:20:11.071Z,13.98
2022-10-31T23:23:14.744Z,13.43
2022-10-31T23:26:35.987Z,13.23
2022-10-31T23:29:40.168Z,13.40
2022-10-31T23:32:42.861Z,13.60
2022-10-31T23:35:45.578Z,12.23
2022-10-31T23:38:51.110Z,12.55
2022-10-31T23:41:53.946Z,12.25
2022-10-31T23:44:56.770Z,11.80
2022-10-31T23:48:00.087Z,12.07
2022-10-31T23:51:03.225Z,12.35
2022-10-31T23:54:06.022Z,11.20
2022-10-31T23:57:08.727Z,11.90
